createdAt,value
2023-05-13T00:01:58.080Z,9.98
2023-05-13T00:04:25.012Z,10.60
2023-05-13T00:06:52.361Z,9.48
2023-05-13T00:09:19.371Z,9.05
2023-05-13T00:11:46.307Z,9.00
2023-05-13T00:14:13.392Z,8.57
2023-05-13T00:16:40.811Z,10.80
2023-05-13T00:19:07.976Z,10.50
2023-05-13T00:21:35.021Z,9.20
2023-05-13T00:24:02.070Z,8.82
2023-05-13T00:26:29.362Z,8.10
2023-05-13T00:28:56.377Z,10.40
2023-05-13T00:31:23.914Z,10.30
2023-05-13T00:33:50.976Z,10.48
2023-05-13T00:36:18.021Z,12.80
2023-05-13T00:38:45.043Z,9.75
2023-05-13T00:41:12.404Z,10.40
2023-05-13T00:43:39.434Z,10.65
2023-05-13T00:46:06.793Z,10.27
2023-05-13T00:48:34.458Z,9.73
2023-05-13T00:51:01.480Z,10.38
2023-05-13T00:53:28.559Z,9.55
2023-05-13T00:55:55.911Z,9.95
2023-05-13T00:58:23.000Z,9.45
2023-05-13T01:01:27.105Z,12.50
2023-05-13T01:04:24.784Z,10.43
2023-05-13T01:07:22.069Z,11.05
2023-05-13T01:10:03.788Z,12.52
2023-05-13T01:12:38.849Z,11.30
2023-05-13T01:15:09.517Z,10.93
2023-05-13T01:17:44.640Z,12.15
2023-05-13T01:20:12.462Z,10.27
2023-05-13T01:22:39.438Z,10.23
2023-05-13T01:25:06.915Z,13.20
2023-05-13T01:27:33.978Z,10.85
2023-05-13T01:30:01.179Z,10.57
2023-05-13T01:32:28.644Z,11.00
2023-05-13T01:34:57.059Z,10.13
2023-05-13T01:37:24.207Z,14.70
2023-05-13T01:39:52.053Z,9.57
2023-05-13T01:42:19.261Z,12.68
2023-05-13T01:44:46.753Z,11.07
2023-05-13T01:47:13.815Z,10.90
2023-05-13T01:49:40.781Z,11.13
2023-05-13T01:52:07.858Z,11.35
2023-05-13T01:54:34.799Z,10.68
2023-05-13T01:57:01.874Z,12.48
2023-05-13T01:59:29.126Z,13.90
2023-05-13T02:01:56.281Z,12.60
2023-05-13T02:04:23.301Z,16.73
2023-05-13T02:06:50.388Z,14.05
2023-05-13T02:09:17.320Z,11.30
2023-05-13T02:11:45.799Z,13.73
2023-05-13T02:14:12.792Z,12.20
2023-05-13T02:16:39.817Z,13.88
2023-05-13T02:19:07.306Z,13.45
2023-05-13T02:21:34.501Z,14.35
2023-05-13T02:24:01.809Z,10.27
2023-05-13T02:26:29.129Z,12.95
2023-05-13T02:28:56.333Z,13.57
2023-05-13T02:31:23.594Z,10.55
2023-05-13T02:33:50.634Z,12.30
2023-05-13T02:36:17.648Z,12.05
2023-05-13T02:38:44.590Z,11.45
2023-05-13T02:41:11.621Z,11.48
2023-05-13T02:43:38.609Z,11.30
2023-05-13T02:46:05.707Z,12.43
2023-05-13T02:48:32.788Z,10.02
2023-05-13T02:50:59.951Z,12.40
2023-05-13T02:53:27.232Z,10.32
2023-05-13T02:55:54.679Z,11.07
2023-05-13T02:58:21.897Z,15.18
2023-05-13T03:00:48.856Z,10.88
2023-05-13T03:03:16.018Z,12.30
2023-05-13T03:05:43.071Z,12.35
2023-05-13T03:08:10.077Z,11.70
2023-05-13T03:10:37.089Z,14.65
2023-05-13T03:13:04.088Z,12.52
2023-05-13T03:15:31.190Z,11.48
2023-05-13T03:17:58.223Z,13.63
2023-05-13T03:20:25.217Z,12.25
2023-05-13T03:22:52.259Z,12.98
2023-05-13T03:25:19.273Z,10.65
2023-05-13T03:27:46.254Z,11.73
2023-05-13T03:30:14.294Z,11.48
2023-05-13T03:32:41.413Z,13.90
2023-05-13T03:35:08.594Z,12.25
2023-05-13T03:37:35.548Z,11.60
2023-05-13T03:40:02.587Z,11.43
2023-05-13T03:42:30.865Z,12.45
2023-05-13T03:44:57.870Z,12.10
2023-05-13T03:47:25.064Z,12.48
2023-05-13T03:49:52.144Z,10.23
2023-05-13T03:52:19.253Z,12.90
2023-05-13T03:54:46.244Z,10.60
2023-05-13T03:57:13.272Z,12.00
2023-05-13T03:59:40.263Z,11.63
2023-05-13T04:02:07.261Z,12.70
2023-05-13T04:04:34.580Z,12.32
2023-05-13T04:07:01.644Z,10.20
2023-05-13T04:09:28.724Z,12.20
2023-05-13T04:11:55.839Z,12.40
2023-05-13T04:14:22.856Z,12.38
2023-05-13T04:16:49.898Z,12.63
2023-05-13T04:19:17.039Z,11.15
2023-05-13T04:21:44.058Z,10.68
2023-05-13T04:24:11.112Z,11.10
2023-05-13T04:26:38.451Z,12.73
2023-05-13T04:29:05.512Z,10.38
2023-05-13T04:31:32.776Z,10.45
2023-05-13T04:33:59.898Z,13.43
2023-05-13T04:36:26.876Z,11.63
2023-05-13T04:38:55.525Z,12.63
2023-05-13T04:41:22.477Z,11.00
2023-05-13T04:43:49.498Z,14.18
2023-05-13T04:46:16.699Z,11.52
2023-05-13T04:48:48.319Z,13.70
2023-05-13T04:51:16.451Z,12.02
2023-05-13T04:53:43.999Z,12.15
2023-05-13T04:56:11.105Z,12.45
2023-05-13T04:58:38.123Z,12.15
2023-05-13T05:01:05.260Z,12.18
2023-05-13T05:03:32.312Z,12.13
2023-05-13T05:05:59.455Z,11.93
2023-05-13T05:08:26.501Z,13.23
2023-05-13T05:10:53.776Z,11.40
2023-05-13T05:13:20.761Z,12.30
2023-05-13T05:15:47.727Z,11.65
2023-05-13T05:18:14.822Z,11.25
2023-05-13T05:20:41.858Z,12.45
2023-05-13T05:23:10.668Z,12.02
2023-05-13T05:25:37.768Z,12.50
2023-05-13T05:28:07.941Z,12.75
2023-05-13T05:30:40.009Z,11.32
2023-05-13T05:33:08.264Z,11.60
2023-05-13T05:35:38.598Z,14.13
2023-05-13T05:38:08.792Z,10.82
2023-05-13T05:40:39.671Z,11.38
2023-05-13T05:43:07.488Z,9.65
2023-05-13T05:45:38.786Z,11.82
2023-05-13T05:48:06.945Z,11.32
2023-05-13T05:50:34.904Z,14.68
2023-05-13T05:53:02.093Z,12.30
2023-05-13T05:55:29.136Z,10.45
2023-05-13T05:57:56.586Z,10.30
2023-05-13T06:00:24.331Z,13.55
2023-05-13T06:02:51.469Z,11.80
2023-05-13T06:05:18.716Z,13.25
2023-05-13T06:07:45.683Z,11.80
2023-05-13T06:10:13.082Z,12.68
2023-05-13T06:12:41.053Z,11.18
2023-05-13T06:15:10.813Z,11.88
2023-05-13T06:17:38.477Z,12.52
2023-05-13T06:20:06.244Z,13.25
2023-05-13T06:22:33.375Z,11.20
2023-05-13T06:25:00.464Z,12.38
2023-05-13T06:27:27.498Z,12.02
2023-05-13T06:29:54.747Z,11.73
2023-05-13T06:32:21.780Z,11.77
2023-05-13T06:34:48.765Z,11.85
2023-05-13T06:37:15.772Z,10.85
2023-05-13T06:39:42.796Z,10.38
2023-05-13T06:42:11.096Z,11.70
2023-05-13T06:44:39.982Z,12.82
2023-05-13T06:47:07.360Z,12.88
2023-05-13T06:49:34.431Z,10.23
2023-05-13T06:52:01.772Z,12.60
2023-05-13T06:54:28.956Z,12.13
2023-05-13T06:56:56.009Z,13.80
2023-05-13T06:59:23.051Z,11.30
2023-05-13T07:01:50.041Z,12.35
2023-05-13T07:04:17.157Z,11.68
2023-05-13T07:06:44.252Z,11.27
2023-05-13T07:09:11.366Z,11.07
2023-05-13T07:11:38.548Z,12.20
2023-05-13T07:14:05.558Z,9.70
2023-05-13T07:16:32.516Z,12.98
2023-05-13T07:18:59.552Z,11.55
2023-05-13T07:21:26.911Z,11.77
2023-05-13T07:23:53.891Z,11.48
2023-05-13T07:26:21.830Z,10.70
2023-05-13T07:28:49.022Z,12.43
2023-05-13T07:31:16.106Z,10.13
2023-05-13T07:33:43.169Z,10.73
2023-05-13T07:36:10.352Z,11.10
2023-05-13T07:38:37.387Z,10.63
2023-05-13T07:41:04.515Z,12.43
2023-05-13T07:43:35.061Z,12.70
2023-05-13T07:46:03.501Z,11.32
2023-05-13T07:48:31.734Z,12.35
2023-05-13T07:50:58.915Z,12.32
2023-05-13T07:53:26.320Z,10.35
2023-05-13T07:55:53.473Z,15.75
2023-05-13T07:58:20.844Z,13.32
2023-05-13T08:00:49.646Z,10.32
2023-05-13T08:03:19.445Z,12.15
2023-05-13T08:05:48.181Z,11.07
2023-05-13T08:08:15.187Z,11.88
2023-05-13T08:10:42.214Z,12.10
2023-05-13T08:13:09.226Z,14.90
2023-05-13T08:15:37.294Z,11.32
2023-05-13T08:18:04.367Z,17.52
2023-05-13T08:20:31.422Z,12.05
2023-05-13T08:22:58.882Z,13.60
2023-05-13T08:25:26.042Z,13.02
2023-05-13T08:27:53.943Z,12.45
2023-05-13T08:30:21.202Z,10.52
2023-05-13T08:32:48.652Z,11.23
2023-05-13T08:35:15.738Z,13.65
2023-05-13T08:37:42.892Z,11.23
2023-05-13T08:40:11.703Z,12.88
2023-05-13T08:42:40.245Z,9.57
2023-05-13T08:45:10.132Z,12.20
2023-05-13T08:47:40.785Z,12.75
2023-05-13T08:50:08.291Z,9.85
2023-05-13T08:52:35.450Z,9.68
2023-05-13T08:55:03.075Z,11.68
2023-05-13T08:57:31.388Z,14.88
2023-05-13T08:59:58.466Z,10.85
2023-05-13T09:02:25.766Z,9.55
2023-05-13T09:04:57.524Z,9.50
2023-05-13T09:07:25.044Z,10.50
2023-05-13T09:09:52.742Z,11.30
2023-05-13T09:12:46.617Z,8.55
2023-05-13T09:15:15.884Z,12.60
2023-05-13T09:17:45.625Z,10.25
2023-05-13T09:20:14.491Z,11.23
2023-05-13T09:22:52.564Z,9.93
2023-05-13T09:25:27.285Z,13.77
2023-05-13T09:28:02.632Z,13.52
2023-05-13T09:30:33.269Z,10.85
2023-05-13T09:33:20.386Z,10.45
2023-05-13T09:35:55.118Z,10.55
2023-05-13T09:38:26.156Z,12.10
2023-05-13T09:40:54.611Z,11.27
2023-05-13T09:43:27.211Z,8.00
2023-05-13T09:45:55.552Z,12.53
2023-05-13T09:48:25.253Z,11.27
2023-05-13T09:50:53.489Z,11.38
2023-05-13T09:53:23.715Z,8.95
2023-05-13T09:55:52.846Z,11.10
2023-05-13T09:58:20.871Z,11.55
2023-05-13T10:00:48.501Z,8.20
2023-05-13T10:03:16.207Z,9.35
2023-05-13T10:05:43.871Z,10.77
2023-05-13T10:08:13.708Z,7.75
2023-05-13T10:10:42.361Z,8.50
2023-05-13T10:13:13.458Z,8.70
2023-05-13T10:15:50.554Z,15.10
2023-05-13T10:18:19.162Z,5.43
2023-05-13T10:20:47.091Z,6.18
2023-05-13T10:23:15.267Z,10.27
2023-05-13T10:25:43.735Z,8.88
2023-05-13T10:28:11.223Z,8.57
2023-05-13T10:30:39.204Z,8.60
2023-05-13T10:33:06.579Z,10.93
2023-05-13T10:35:40.421Z,9.30
2023-05-13T10:38:57.150Z,7.93
2023-05-13T10:41:53.514Z,6.57
2023-05-13T10:44:20.751Z,10.68
2023-05-13T10:46:48.904Z,8.55
2023-05-13T10:49:16.465Z,6.85
2023-05-13T10:51:48.521Z,7.80
2023-05-13T10:54:23.474Z,5.72
2023-05-13T10:56:57.826Z,8.40
2023-05-13T10:59:25.021Z,7.32
2023-05-13T11:01:52.012Z,7.93
2023-05-13T11:04:21.671Z,11.38
2023-05-13T11:06:50.902Z,7.72
2023-05-13T11:09:20.953Z,8.98
2023-05-13T11:11:49.639Z,11.27
2023-05-13T11:14:23.599Z,9.93
2023-05-13T11:17:18.832Z,8.20
2023-05-13T11:19:47.129Z,8.02
2023-05-13T11:22:27.758Z,7.97
2023-05-13T11:25:09.523Z,6.72
2023-05-13T11:27:41.201Z,6.55
2023-05-13T11:30:26.480Z,8.18
2023-05-13T11:32:56.476Z,7.25
2023-05-13T11:35:26.188Z,5.88
2023-05-13T11:37:54.040Z,7.93
2023-05-13T11:40:35.242Z,8.00
2023-05-13T11:43:05.209Z,6.93
2023-05-13T11:45:32.479Z,6.60
2023-05-13T11:48:18.639Z,6.22
2023-05-13T11:50:45.756Z,6.78
2023-05-13T11:53:20.236Z,6.07
2023-05-13T11:55:47.228Z,6.28
2023-05-13T11:58:17.726Z,6.40
2023-05-13T12:00:46.694Z,7.63
2023-05-13T12:03:16.308Z,6.97
2023-05-13T12:05:44.820Z,5.55
2023-05-13T12:08:11.914Z,5.25
2023-05-13T12:10:45.416Z,9.10
2023-05-13T12:13:13.128Z,8.30
2023-05-13T12:15:40.576Z,8.57
2023-05-13T12:18:08.402Z,6.85
2023-05-13T12:20:35.813Z,7.78
2023-05-13T12:23:04.347Z,8.35
2023-05-13T12:25:47.882Z,6.40
2023-05-13T12:28:18.990Z,6.32
2023-05-13T12:31:05.980Z,10.45
2023-05-13T12:33:43.720Z,9.98
2023-05-13T12:36:23.299Z,5.57
2023-05-13T12:39:11.581Z,8.63
2023-05-13T12:41:40.547Z,7.00
2023-05-13T12:44:11.582Z,6.22
2023-05-13T12:46:39.899Z,6.35
2023-05-13T12:49:09.636Z,9.02
2023-05-13T12:51:36.759Z,6.60
2023-05-13T12:54:03.768Z,6.55
2023-05-13T12:56:31.179Z,5.15
2023-05-13T12:58:58.228Z,8.63
2023-05-13T13:01:25.291Z,9.32
2023-05-13T13:03:52.451Z,7.15
2023-05-13T13:06:19.516Z,7.40
2023-05-13T13:08:46.532Z,9.10
2023-05-13T13:11:18.736Z,6.53
2023-05-13T13:13:47.225Z,7.57
2023-05-13T13:16:14.849Z,6.68
2023-05-13T13:18:42.498Z,7.72
2023-05-13T13:21:10.232Z,7.90
2023-05-13T13:23:37.300Z,6.22
2023-05-13T13:26:04.482Z,6.35
2023-05-13T13:28:31.985Z,8.68
2023-05-13T13:31:00.221Z,8.93
2023-05-13T13:33:27.674Z,5.95
2023-05-13T13:35:54.833Z,5.43
2023-05-13T13:38:22.030Z,5.07
2023-05-13T13:40:49.037Z,8.23
2023-05-13T13:43:16.088Z,8.05
2023-05-13T13:45:43.207Z,5.07
2023-05-13T13:48:10.400Z,7.65
2023-05-13T13:50:37.412Z,5.07
2023-05-13T13:53:04.475Z,6.50
2023-05-13T13:55:31.541Z,6.35
2023-05-13T13:57:58.519Z,5.88
2023-05-13T14:00:25.518Z,9.13
2023-05-13T14:02:52.690Z,6.85
2023-05-13T14:05:19.950Z,8.00
2023-05-13T14:07:48.515Z,6.65
2023-05-13T14:10:15.564Z,7.47
2023-05-13T14:12:42.538Z,5.90
2023-05-13T14:15:09.939Z,10.63
2023-05-13T14:17:37.060Z,7.63
2023-05-13T14:20:05.063Z,6.47
2023-05-13T14:22:32.083Z,12.05
2023-05-13T14:24:59.384Z,6.93
2023-05-13T14:27:26.393Z,6.70
2023-05-13T14:29:53.437Z,5.45
2023-05-13T14:32:20.749Z,10.07
2023-05-13T14:34:47.841Z,6.95
2023-05-13T14:37:14.882Z,9.15
2023-05-13T14:39:41.933Z,7.55
2023-05-13T14:42:08.934Z,6.30
2023-05-13T14:44:36.773Z,5.95
2023-05-13T14:47:04.081Z,8.52
2023-05-13T14:49:31.204Z,7.95
2023-05-13T14:51:58.189Z,6.72
2023-05-13T14:54:25.191Z,11.05
2023-05-13T14:56:52.939Z,7.25
2023-05-13T14:59:20.144Z,9.10
2023-05-13T15:01:47.132Z,7.65
2023-05-13T15:04:14.177Z,7.85
2023-05-13T15:06:41.491Z,8.43
2023-05-13T15:09:08.714Z,13.45
2023-05-13T15:11:36.585Z,5.80
2023-05-13T15:14:03.625Z,5.95
2023-05-13T15:16:30.725Z,8.63
2023-05-13T15:18:57.858Z,7.95
2023-05-13T15:21:24.860Z,8.13
2023-05-13T15:23:51.851Z,6.50
2023-05-13T15:26:19.528Z,6.40
2023-05-13T15:28:46.644Z,7.30
2023-05-13T15:31:13.647Z,8.05
2023-05-13T15:33:42.015Z,9.85
2023-05-13T15:36:10.160Z,8.02
2023-05-13T15:38:37.650Z,8.48
2023-05-13T15:41:04.956Z,6.25
2023-05-13T15:43:32.230Z,8.13
2023-05-13T15:45:59.883Z,7.63
2023-05-13T15:48:27.439Z,7.90
2023-05-13T15:50:54.792Z,7.88
2023-05-13T15:53:21.813Z,7.55
2023-05-13T15:55:48.921Z,7.80
2023-05-13T15:58:15.942Z,6.20
2023-05-13T16:00:43.425Z,6.28
2023-05-13T16:03:10.486Z,8.35
2023-05-13T16:05:38.807Z,6.60
2023-05-13T16:08:05.902Z,8.18
2023-05-13T16:10:34.046Z,9.27
2023-05-13T16:13:02.653Z,7.93
2023-05-13T16:15:29.735Z,5.43
2023-05-13T16:17:56.941Z,9.13
2023-05-13T16:20:24.421Z,5.13
2023-05-13T16:22:51.686Z,7.82
2023-05-13T16:25:18.719Z,6.70
2023-05-13T16:27:45.774Z,6.60
2023-05-13T16:30:13.130Z,5.10
2023-05-13T16:32:40.217Z,5.72
2023-05-13T16:35:08.135Z,6.22
2023-05-13T16:37:35.650Z,5.75
2023-05-13T16:40:03.068Z,5.18
2023-05-13T16:42:30.279Z,4.47
2023-05-13T16:44:57.334Z,8.18
2023-05-13T16:47:24.532Z,10.35
2023-05-13T16:49:51.717Z,5.60
2023-05-13T16:52:18.767Z,9.15
2023-05-13T16:54:45.917Z,6.70
2023-05-13T16:57:14.208Z,5.85
2023-05-13T16:59:41.300Z,8.05
2023-05-13T17:02:08.978Z,8.18
2023-05-13T17:04:36.347Z,12.10
2023-05-13T17:07:03.611Z,4.60
2023-05-13T17:09:31.015Z,4.88
2023-05-13T17:11:58.116Z,6.28
2023-05-13T17:14:25.438Z,4.38
2023-05-13T17:16:53.037Z,5.00
2023-05-13T17:19:20.109Z,4.95
2023-05-13T17:21:47.318Z,5.75
2023-05-13T17:24:14.326Z,6.90
2023-05-13T17:26:41.362Z,4.40
2023-05-13T17:29:08.426Z,9.95
2023-05-13T17:31:35.547Z,9.00
2023-05-13T17:34:02.605Z,4.47
2023-05-13T17:36:29.642Z,5.90
2023-05-13T17:38:56.663Z,5.80
2023-05-13T17:41:23.713Z,6.43
2023-05-13T17:43:50.861Z,4.28
2023-05-13T17:46:17.904Z,6.80
2023-05-13T17:48:44.969Z,6.47
2023-05-13T17:51:12.212Z,5.75
2023-05-13T17:53:39.220Z,5.72
2023-05-13T17:56:08.417Z,6.60
2023-05-13T17:58:35.505Z,6.78
2023-05-13T18:01:02.857Z,4.45
2023-05-13T18:03:29.888Z,4.75
2023-05-13T18:05:56.913Z,5.47
2023-05-13T18:08:24.016Z,4.55
2023-05-13T18:10:51.085Z,6.35
2023-05-13T18:13:18.120Z,8.20
2023-05-13T18:15:45.211Z,6.22
2023-05-13T18:18:13.543Z,8.18
2023-05-13T18:20:42.219Z,8.73
2023-05-13T18:23:09.341Z,8.32
2023-05-13T18:25:42.617Z,7.47
2023-05-13T18:28:19.362Z,9.10
2023-05-13T18:30:46.388Z,7.45
2023-05-13T18:33:13.471Z,7.72
2023-05-13T18:35:40.596Z,8.77
2023-05-13T18:38:07.745Z,8.43
2023-05-13T18:40:34.722Z,5.95
2023-05-13T18:43:01.725Z,6.45
2023-05-13T18:45:29.110Z,9.90
2023-05-13T18:47:56.283Z,9.68
2023-05-13T18:50:24.897Z,12.27
2023-05-13T18:52:52.084Z,6.03
2023-05-13T18:55:19.183Z,10.32
2023-05-13T18:57:46.602Z,8.90
2023-05-13T19:00:14.025Z,7.60
2023-05-13T19:02:41.228Z,6.75
2023-05-13T19:05:08.685Z,6.13
2023-05-13T19:07:35.791Z,7.25
2023-05-13T19:10:03.504Z,9.05
2023-05-13T19:12:30.521Z,7.38
2023-05-13T19:14:57.528Z,9.32
2023-05-13T19:17:24.834Z,8.95
2023-05-13T19:19:51.826Z,9.85
2023-05-13T19:22:18.966Z,7.68
2023-05-13T19:24:46.093Z,6.28
2023-05-13T19:27:13.214Z,6.65
2023-05-13T19:29:40.263Z,7.88
2023-05-13T19:32:07.306Z,9.60
2023-05-13T19:34:34.326Z,7.65
2023-05-13T19:37:01.520Z,12.52
2023-05-13T19:39:28.776Z,15.18
2023-05-13T19:41:55.984Z,11.93
2023-05-13T19:44:24.008Z,11.60
2023-05-13T19:46:51.600Z,14.60
2023-05-13T19:49:18.688Z,13.82
2023-05-13T19:51:45.749Z,13.35
2023-05-13T19:54:13.796Z,11.93
2023-05-13T19:56:41.622Z,12.02
2023-05-13T19:59:08.909Z,10.25
2023-05-13T20:01:37.804Z,10.55
2023-05-13T20:04:05.093Z,12.40
2023-05-13T20:06:32.804Z,8.05
2023-05-13T20:09:00.980Z,6.95
2023-05-13T20:11:28.286Z,10.70
2023-05-13T20:13:56.022Z,9.82
2023-05-13T20:16:23.666Z,9.32
2023-05-13T20:18:51.423Z,7.70
2023-05-13T20:21:18.530Z,8.65
2023-05-13T20:23:45.547Z,10.40
2023-05-13T20:26:12.565Z,8.60
2023-05-13T20:28:39.563Z,6.97
2023-05-13T20:31:06.969Z,12.30
2023-05-13T20:33:34.085Z,9.20
2023-05-13T20:36:01.149Z,10.50
2023-05-13T20:38:28.355Z,13.00
2023-05-13T20:40:55.362Z,9.73
2023-05-13T20:43:22.361Z,9.50
2023-05-13T20:45:49.459Z,12.70
2023-05-13T20:48:16.453Z,10.85
2023-05-13T20:50:43.509Z,10.57
2023-05-13T20:53:10.582Z,9.27
2023-05-13T20:55:37.626Z,11.45
2023-05-13T20:58:04.649Z,11.15
2023-05-13T21:00:31.686Z,8.85
2023-05-13T21:02:58.873Z,11.38
2023-05-13T21:05:26.080Z,11.98
2023-05-13T21:07:53.142Z,12.35
2023-05-13T21:10:20.439Z,14.52
2023-05-13T21:12:48.246Z,13.05
2023-05-13T21:15:15.430Z,11.77
2023-05-13T21:17:42.626Z,13.20
2023-05-13T21:20:11.075Z,16.35
2023-05-13T21:22:38.114Z,15.43
2023-05-13T21:25:05.672Z,15.48
2023-05-13T21:27:32.743Z,13.15
2023-05-13T21:29:59.813Z,11.50
2023-05-13T21:32:27.584Z,12.05
2023-05-13T21:34:56.061Z,10.25
2023-05-13T21:37:23.434Z,9.80
2023-05-13T21:39:50.445Z,9.35
2023-05-13T21:42:17.515Z,10.13
2023-05-13T21:44:44.533Z,10.38
2023-05-13T21:47:11.548Z,8.98
2023-05-13T21:49:38.546Z,9.00
2023-05-13T21:52:05.921Z,8.50
2023-05-13T21:54:32.894Z,8.50
2023-05-13T21:57:01.205Z,9.13
2023-05-13T21:59:28.336Z,8.77
2023-05-13T22:01:55.434Z,7.75
2023-05-13T22:04:25.632Z,9.75
2023-05-13T22:06:53.460Z,7.72
2023-05-13T22:09:20.464Z,7.65
2023-05-13T22:11:47.497Z,8.15
2023-05-13T22:14:14.508Z,8.65
2023-05-13T22:16:41.600Z,10.30
2023-05-13T22:19:08.877Z,9.25
2023-05-13T22:21:36.221Z,7.97
2023-05-13T22:24:05.207Z,8.98
2023-05-13T22:26:33.076Z,10.05
2023-05-13T22:29:00.080Z,9.57
2023-05-13T22:31:27.243Z,9.85
2023-05-13T22:33:54.336Z,5.93
2023-05-13T22:36:21.432Z,7.50
2023-05-13T22:38:48.383Z,8.25
2023-05-13T22:41:15.437Z,8.20
2023-05-13T22:43:42.406Z,9.27
2023-05-13T22:46:09.450Z,7.55
2023-05-13T22:48:36.482Z,8.68
2023-05-13T22:51:03.623Z,7.50
2023-05-13T22:53:30.684Z,9.82
2023-05-13T22:55:57.652Z,7.82
2023-05-13T22:58:24.701Z,9.15
2023-05-13T23:00:51.729Z,9.18
2023-05-13T23:03:18.728Z,6.68
2023-05-13T23:05:45.748Z,9.95
2023-05-13T23:08:12.892Z,9.57
2023-05-13T23:10:39.870Z,8.25
2023-05-13T23:13:06.919Z,11.00
2023-05-13T23:15:36.731Z,8.93
2023-05-13T23:18:03.993Z,12.35
2023-05-13T23:20:31.027Z,11.15
2023-05-13T23:22:58.100Z,8.70
2023-05-13T23:25:25.159Z,11.57
2023-05-13T23:27:52.197Z,10.77
2023-05-13T23:30:19.185Z,8.43
2023-05-13T23:32:46.416Z,8.68
2023-05-13T23:35:13.450Z,9.95
2023-05-13T23:37:40.482Z,9.50
2023-05-13T23:40:10.523Z,11.00
2023-05-13T23:42:38.492Z,11.40
2023-05-13T23:45:06.023Z,8.43
2023-05-13T23:47:33.145Z,8.77
2023-05-13T23:50:00.372Z,11.07
2023-05-13T23:52:27.418Z,8.35
2023-05-13T23:54:54.407Z,8.63
2023-05-13T23:57:22.294Z,8.30
2023-05-13T23:59:49.355Z,10.70
